Terminal Aerodrome Forecast
Issued by NWS

Home | Current Version | Previous Version | Text Only | Print | Product List | Glossary On
Versions: 1 2 3 4 5 6 7 8 9 10 11 12 13 14 15
000
FTUS45 KRIW 231100
TAFRKS
TAF
KRKS 231120Z 2312/2412 VRB05KT P6SM SKC
     FM231600 23010G18KT P6SM SCT150
     FM231900 25015G23KT P6SM SCT150
     FM240130 21010KT P6SM SCT120=

USA.gov is the U.S. government's official web portal to all federal, state and local government web resources and services.